Meteorología y climatología de Navarra
Datos de la estación - Meteo Navarra

Estación de Arangoiti GN

Altitud 1353 m.


Datos desde el 09/11/2019 hasta el 10/11/2019 en horario solar
Los datos son PROVISIONALES

Anterior Página 1 de 1 Siguiente Descargar: Formato para Excel 2000 o superior   Formato csv   Formato para OpenOffice Calc
Fecha Temperatura Humedad relativa Radiación global Insolación Precipitación Vel. viento 10 m Vel. viento 10 m Dir. viento 10 m
ºC % W/m² s l/m² m/s km/h º
09/11/2019 0:00 -0.5 100 0.0 0 0.0 12.6 45.4 346
09/11/2019 0:10 -0.6 100 0.0 0 0.1 13.0 46.9 344
09/11/2019 0:20 -0.8 100 0.0 0 0.0 12.5 45.0 345
09/11/2019 0:30 -0.8 100 0.0 0 0.0 12.0 43.3 345
09/11/2019 0:40 -0.4 100 0.0 0 0.0 11.7 42.2 350
09/11/2019 0:50 -0.1 100 0.0 0 0.0 11.5 41.5 351
09/11/2019 1:00 -0.5 100 0.0 0 0.0 11.6 41.9 350
09/11/2019 1:10 -0.4 100 0.0 0 0.0 11.4 40.9 350
09/11/2019 1:20 -0.4 100 0.0 0 0.0 10.9 39.2 350
09/11/2019 1:30 -0.8 100 0.0 0 0.1 11.0 39.5 349
09/11/2019 1:40 -0.9 100 0.0 0 0.0 11.3 40.6 350
09/11/2019 1:50 -0.5 100 0.0 0 0.0 11.7 42.3 351
09/11/2019 2:00 -0.1 100 0.0 0 0.0 11.4 41.1 354
09/11/2019 2:10 -0.8 100 0.0 0 0.0 12.4 44.8 352
09/11/2019 2:20 -0.8 100 0.0 0 0.1 11.2 40.1 357
09/11/2019 2:30 -0.8 100 0.0 0 0.0 10.9 39.4 354
09/11/2019 2:40 -0.8 100 0.0 0 0.0 12.7 45.8 352
09/11/2019 2:50 -0.4 100 0.0 0 0.0 13.0 46.6 355
09/11/2019 3:00 -0.8 100 0.0 0 0.0 11.1 40.1 355
09/11/2019 3:10 -0.8 100 0.0 0 0.0 10.4 37.5 0
09/11/2019 3:20 -0.8 100 0.0 0 0.1 9.3 33.5 1
09/11/2019 3:30 -0.5 100 0.0 0 0.0 8.0 28.9 1
09/11/2019 3:40 -0.1 100 0.0 0 0.0 7.1 25.4 0
09/11/2019 3:50 -0.7 100 0.0 0 0.0 6.4 22.9 0
09/11/2019 4:00 -0.1 100 0.0 0 0.0 5.8 21.0 0
09/11/2019 4:10 -0.8 100 0.0 0 0.1 5.2 18.7 0
09/11/2019 4:20 -0.4 100 0.0 0 0.0 4.8 17.2 1
09/11/2019 4:30 -0.8 100 0.0 0 0.0 4.9 17.8 0
09/11/2019 4:40 -0.8 100 0.0 0 0.0 11.0 39.4 1
09/11/2019 4:50 -0.4 100 0.0 0 0.0 10.3 37.0 3
09/11/2019 5:00 -0.1 100 0.0 0 0.0 9.9 35.7 1
09/11/2019 5:10 -0.8 100 0.0 0 0.0 10.1 36.2 3
09/11/2019 5:20 -0.4 100 0.0 0 0.1 9.5 34.2 1
09/11/2019 5:30 -0.5 100 0.0 0 0.0 9.6 34.6 359
09/11/2019 5:40 -0.5 100 0.0 0 0.0 9.0 32.3 356
09/11/2019 5:50 -0.8 100 0.0 0 0.0 9.1 32.7 354
09/11/2019 6:00 -0.1 100 0.0 0 0.0 8.8 31.5 355
09/11/2019 6:10 -0.5 100 0.0 0 0.0 9.8 35.1 351
09/11/2019 6:20 -0.8 100 0.0 0 0.0 9.5 34.1 352
09/11/2019 6:30 -0.5 100 0.0 0 0.0 8.9 32.0 358
09/11/2019 6:40 -0.8 100 0.0 0 0.0 9.0 32.4 353
09/11/2019 6:50 -0.8 100 2.6 0 0.1 8.5 30.6 359
09/11/2019 7:00 -0.8 100 16.6 0 0.0 8.8 31.7 353
09/11/2019 7:10 -0.8 100 18.9 0 0.0 8.5 30.7 354
09/11/2019 7:20 -0.5 100 28.4 214 0.0 8.1 29.0 358
09/11/2019 7:30 -0.8 100 36.3 0 0.1 8.0 28.9 356
09/11/2019 7:40 -0.8 100 33.9 0 0.0 7.4 26.6 354
09/11/2019 7:50 -0.8 100 37.5 0 0.0 7.3 26.4 357
09/11/2019 8:00 -0.8 100 46.6 0 0.1 7.8 28.2 352
09/11/2019 8:10 -0.8 100 66.5 0 0.0 7.8 28.0 350
09/11/2019 8:20 -0.5 100 123.3 380 0.0 7.4 26.6 354
09/11/2019 8:30 -0.8 100 71.0 0 0.0 7.8 28.2 353
09/11/2019 8:40 -0.5 100 103.8 54 0.0 8.0 28.7 353
09/11/2019 8:50 -0.5 100 101.7 0 0.1 7.9 28.5 352
09/11/2019 9:00 -0.8 100 143.6 130 0.1 7.5 27.1 351
09/11/2019 9:10 -0.4 100 177.3 256 0.0 7.7 27.6 350
09/11/2019 9:20 -0.9 100 214.5 520 0.1 8.0 28.7 348
09/11/2019 9:30 -0.8 100 197.4 302 0.1 8.1 29.0 345
09/11/2019 9:40 -0.8 100 193.5 172 0.1 7.4 26.5 343
09/11/2019 9:50 -0.4 100 253.6 516 0.1 7.6 27.4 342
09/11/2019 10:00 -0.5 100 246.4 324 0.2 7.6 27.4 339
09/11/2019 10:10 -0.3 100 287.7 600 0.2 7.7 27.8 341
09/11/2019 10:20 0.1 100 412.2 600 0.3 6.6 23.8 342
09/11/2019 10:30 0.1 99 410.1 600 0.3 6.6 23.8 335
09/11/2019 10:40 1.2 100 440.1 600 0.5 8.2 29.5 333
09/11/2019 10:50 0.8 100 432.6 600 0.5 8.9 31.9 339
09/11/2019 11:00 0.5 100 451.0 600 0.5 9.0 32.2 341
09/11/2019 11:10 0.4 100 348.5 600 0.5 8.0 28.9 336
09/11/2019 11:20 1.0 100 347.0 600 0.6 7.4 26.6 342
09/11/2019 11:30 1.5 100 211.8 110 0.6 6.2 22.5 330
09/11/2019 11:40 0.5 100 163.8 0 0.5 5.7 20.3 326
09/11/2019 11:50 0.5 100 210.6 0 0.6 5.9 21.2 324
09/11/2019 12:00 0.6 100 213.3 0 0.5 5.1 18.4 314
09/11/2019 12:10 0.5 100 163.3 0 0.6 6.2 22.4 301
09/11/2019 12:20 1.1 100 203.0 0 0.5 5.6 20.2 293
09/11/2019 12:30 1.2 100 207.4 0 0.5 5.3 19.2 286
09/11/2019 12:40 0.7 100 129.7 0 0.5 3.8 13.6 280
09/11/2019 12:50 0.6 100 189.0 0 0.6 5.0 18.0 281
09/11/2019 13:00 0.3 100 143.5 0 0.5 6.8 24.5 299
09/11/2019 13:10 0.7 100 147.5 0 0.6 6.2 22.4 296
09/11/2019 13:20 0.3 100 170.0 0 0.5 6.6 23.6 303
09/11/2019 13:30 0.7 100 144.9 0 0.5 5.9 21.3 299
09/11/2019 13:40 0.9 100 101.6 0 0.5 6.5 23.4 289
09/11/2019 13:50 0.5 100 109.3 0 0.5 8.3 29.8 295
09/11/2019 14:00 0.5 100 116.9 0 0.5 8.9 32.0 285
09/11/2019 14:10 0.6 100 112.6 0 0.5 6.6 23.9 274
09/11/2019 14:20 0.7 100 163.0 56 0.5 4.9 17.8 267
09/11/2019 14:30 0.7 100 107.5 0 0.5 4.5 16.3 263
09/11/2019 14:40 0.7 100 72.6 0 0.3 4.2 15.0 269
09/11/2019 14:50 0.8 100 61.6 0 0.6 5.1 18.4 266
09/11/2019 15:00 0.9 100 68.7 0 0.5 3.9 14.2 256
09/11/2019 15:10 0.9 100 53.0 0 0.5 3.6 12.9 260
09/11/2019 15:20 1.4 100 51.0 0 0.6 4.0 14.4 254
09/11/2019 15:30 0.9 100 43.2 0 0.6 3.9 14.0 256
09/11/2019 15:40 1.3 100 38.0 0 0.5 4.3 15.4 261
09/11/2019 15:50 1.9 100 39.3 0 0.8 8.0 28.9 294
09/11/2019 16:00 1.0 100 32.5 0 0.6 8.2 29.5 289
09/11/2019 16:10 1.6 100 27.3 0 0.6 8.5 30.6 292
09/11/2019 16:20 1.4 100 20.9 0 0.7 8.7 31.1 302
09/11/2019 16:30 1.0 100 18.6 0 0.6 8.5 30.5 309
09/11/2019 16:40 1.1 100 18.3 0 0.6 8.5 30.7 312
09/11/2019 16:50 2.0 100 3.8 0 0.6 9.0 32.4 317
09/11/2019 17:00 1.7 100 0.0 0 0.3 10.6 38.3 319
09/11/2019 17:10 1.3 100 0.0 0 0.5 7.8 28.0 323
09/11/2019 17:20 1.4 100 0.0 0 0.6 7.3 26.4 322
09/11/2019 17:30 1.4 100 0.0 0 0.6 7.7 27.9 322
09/11/2019 17:40 1.4 100 0.0 0 0.5 8.5 30.5 318
09/11/2019 17:50 1.3 100 0.0 0 0.5 7.4 26.7 333
09/11/2019 18:00 1.4 100 0.0 0 0.3 6.9 24.7 332
09/11/2019 18:10 2.0 100 0.0 0 0.5 8.7 31.3 334
09/11/2019 18:20 1.5 100 0.0 0 0.6 8.6 30.9 325
09/11/2019 18:30 1.8 100 0.0 0 0.5 7.5 27.0 321
09/11/2019 18:40 1.8 100 0.0 0 0.3 8.1 29.2 321
09/11/2019 18:50 1.5 100 0.0 0 0.3 8.0 28.8 319
09/11/2019 19:00 1.4 100 0.0 0 0.3 8.8 31.6 320
09/11/2019 19:10 2.2 100 0.0 0 0.5 9.3 33.6 321
09/11/2019 19:20 1.4 100 0.0 0 0.5 9.8 35.2 330
09/11/2019 19:30 1.8 100 0.0 0 0.5 10.4 37.4 336
09/11/2019 19:40 1.9 100 0.0 0 0.3 10.2 36.8 336
09/11/2019 19:50 1.6 100 0.0 0 0.3 10.7 38.6 333
09/11/2019 20:00 1.6 100 0.0 0 0.6 12.7 45.8 338
09/11/2019 20:10 1.6 100 0.0 0 0.6 12.9 46.3 352
09/11/2019 20:20 1.5 100 0.0 0 0.7 14.0 50.4 355
09/11/2019 20:30 0.5 100 0.0 0 0.6 14.5 52.1 358
09/11/2019 20:40 0.1 100 0.0 0 0.3 14.1 50.8 357
09/11/2019 20:50 -0.1 100 0.0 0 0.5 13.8 49.6 354
09/11/2019 21:00 -0.1 100 0.0 0 0.2 13.2 47.5 357
09/11/2019 21:10 -0.6 100 0.0 0 0.2 14.8 53.2 354
09/11/2019 21:20 -0.1 100 0.0 0 0.1 13.4 48.4 353
09/11/2019 21:30 -0.6 100 0.0 0 0.1 14.5 52.3 345
09/11/2019 21:40 -1.0 100 0.0 0 0.1 12.7 45.6 352
09/11/2019 21:50 -1.0 100 0.0 0 0.1 8.5 30.7 360
09/11/2019 22:00 -1.0 100 0.0 0 0.0 8.7 31.3 0
09/11/2019 22:10 -0.6 100 0.0 0 0.1 10.0 35.9 355
09/11/2019 22:20 -1.1 100 0.0 0 0.0 10.2 36.6 1
09/11/2019 22:30 -0.8 100 0.0 0 0.1 9.9 35.7 8
09/11/2019 22:40 -1.1 100 0.0 0 0.0 7.4 26.8 6
09/11/2019 22:50 -1.1 100 0.0 0 0.0 5.3 19.0 3
09/11/2019 23:00 -1.6 100 0.0 0 0.0 4.1 14.7 2
09/11/2019 23:10 -1.2 100 0.0 0 0.1 4.0 14.4 2
09/11/2019 23:20 -1.2 100 0.0 0 0.0 3.9 14.0 359
09/11/2019 23:30 -1.7 100 0.0 0 0.0 3.7 13.3 357
09/11/2019 23:40 -1.2 100 0.0 0 0.0 3.7 13.3 1
09/11/2019 23:50 -1.6 100 0.0 0 0.0 3.7 13.1 1
Anterior Página 1 de 1 Siguiente
Los datos de precipitación registrados en estaciones que están en cumbres son inferiores a lo real, como consecuencia del efecto del viento y de la nieve.


NOTA: Tipo de datos según el color:
   - Valores diarios o 10 minutos correctos
   - Valores diarios calculados a partir de un número de datos 10 minutos menor que 144 y mayor que 120, o de un número de datos semihorarios menor que 48 y mayor que 40 (caso de las estaciones de INTIA y del Ministerio)
   - Valores diez minutos estimados


Contacto        Enlaces        Aviso legal